createdAt,value
2023-01-13T00:00:11.380Z,12.30
2023-01-13T00:05:22.882Z,13.30
2023-01-13T00:08:27.393Z,12.80
2023-01-13T00:11:30.098Z,14.60
2023-01-13T00:14:36.213Z,11.30
2023-01-13T00:17:39.959Z,12.80
2023-01-13T00:20:42.653Z,11.90
2023-01-13T00:23:46.386Z,13.00
2023-01-13T00:26:49.569Z,12.20
2023-01-13T00:29:53.056Z,14.30
2023-01-13T00:32:55.722Z,11.60
2023-01-13T00:35:59.833Z,13.00
2023-01-13T00:39:03.082Z,13.20
2023-01-13T00:42:28.139Z,12.90
2023-01-13T00:45:31.143Z,14.90
2023-01-13T00:48:34.776Z,12.30
2023-01-13T00:51:37.513Z,13.80
2023-01-13T00:54:40.049Z,13.80
2023-01-13T00:57:42.575Z,12.30
2023-01-13T01:00:45.759Z,13.80
2023-01-13T01:03:49.808Z,13.60
2023-01-13T01:06:52.687Z,12.60
2023-01-13T01:09:55.411Z,13.90
2023-01-13T01:12:59.174Z,13.30
2023-01-13T01:16:07.544Z,15.30
2023-01-13T01:19:10.783Z,14.50
2023-01-13T01:22:13.359Z,14.10
2023-01-13T01:25:17.257Z,15.80
2023-01-13T01:28:20.462Z,14.40
2023-01-13T01:31:26.262Z,15.10
2023-01-13T01:34:28.795Z,17.90
2023-01-13T01:37:31.491Z,16.80
2023-01-13T01:40:34.372Z,16.20
2023-01-13T01:55:36.949Z,15.10
2023-01-13T01:58:47.283Z,14.80
2023-01-13T02:05:22.459Z,15.30
2023-01-13T02:08:31.378Z,15.30
2023-01-13T02:11:54.658Z,14.90
2023-01-13T02:15:07.327Z,14.70
2023-01-13T02:18:35.926Z,14.10
2023-01-13T02:26:26.491Z,13.70
2023-01-13T02:30:30.253Z,16.10
2023-01-13T02:33:57.282Z,14.10
2023-01-13T02:37:09.712Z,13.10
2023-01-13T02:40:23.846Z,13.90
2023-01-13T02:43:55.311Z,14.10
2023-01-13T02:47:08.660Z,14.80
2023-01-13T02:50:34.733Z,13.40
2023-01-13T02:53:56.049Z,14.80
2023-01-13T02:57:00.697Z,16.10
2023-01-13T03:00:06.648Z,16.40
2023-01-13T03:03:09.224Z,16.40
2023-01-13T03:06:30.523Z,16.00
2023-01-13T03:22:32.587Z,15.50
2023-01-13T03:25:43.662Z,15.30
2023-01-13T03:29:14.918Z,14.80
2023-01-13T03:32:33.297Z,15.20
2023-01-13T03:35:42.824Z,15.30
2023-01-13T03:38:52.188Z,17.50
2023-01-13T03:42:07.227Z,15.80
2023-01-13T03:45:20.027Z,13.30
2023-01-13T03:48:25.181Z,14.10
2023-01-13T03:51:32.371Z,15.50
2023-01-13T03:54:44.370Z,14.80
2023-01-13T09:15:49.560Z,18.40
2023-01-13T09:18:51.833Z,17.80
2023-01-13T09:21:56.130Z,14.90
2023-01-13T09:24:58.078Z,16.70
2023-01-13T09:28:00.481Z,15.20
2023-01-13T09:31:03.247Z,16.90
2023-01-13T09:34:33.165Z,21.80
2023-01-13T09:37:38.694Z,20.90
2023-01-13T09:40:43.286Z,16.60
2023-01-13T09:43:55.656Z,15.50
2023-01-13T09:47:03.060Z,13.60
2023-01-13T09:50:14.029Z,16.80
2023-01-13T09:53:27.779Z,16.50
2023-01-13T09:56:29.923Z,17.00
2023-01-13T09:59:35.892Z,16.50
2023-01-13T10:05:28.040Z,15.30
2023-01-13T10:08:38.916Z,13.10
2023-01-13T10:12:03.887Z,13.10
2023-01-13T10:15:12.882Z,13.60
2023-01-13T10:18:24.137Z,13.10
2023-01-13T10:22:00.721Z,13.10
2023-01-13T10:25:20.687Z,13.60
2023-01-13T10:28:25.085Z,13.10
2023-01-13T10:31:27.560Z,11.90
2023-01-13T10:34:30.491Z,12.40
2023-01-13T10:37:34.210Z,12.30
2023-01-13T10:40:48.356Z,12.00
2023-01-13T10:44:15.288Z,11.40
2023-01-13T10:47:32.008Z,11.40
2023-01-13T10:50:36.650Z,12.70
2023-01-13T10:53:50.483Z,11.50
2023-01-13T10:57:18.870Z,11.80
2023-01-13T11:00:34.066Z,10.90
2023-01-13T11:03:42.466Z,11.00
2023-01-13T11:06:48.119Z,12.00
2023-01-13T11:10:20.715Z,11.60
2023-01-13T11:13:33.821Z,11.00
2023-01-13T11:16:47.380Z,12.20
2023-01-13T11:20:20.335Z,12.60
2023-01-13T11:23:32.490Z,12.90
2023-01-13T11:26:47.118Z,13.00
2023-01-13T11:30:09.704Z,12.10
2023-01-13T11:33:16.215Z,12.40
2023-01-13T11:36:24.162Z,13.00
2023-01-13T11:39:58.679Z,13.10
2023-01-13T11:43:11.211Z,12.60
2023-01-13T11:46:14.234Z,12.70
2023-01-13T11:49:25.978Z,12.20
2023-01-13T11:52:49.872Z,12.70
2023-01-13T11:56:07.487Z,16.40
2023-01-13T11:59:32.598Z,12.90
2023-01-13T12:02:54.247Z,11.90
2023-01-13T12:06:40.366Z,12.60
2023-01-13T12:10:25.607Z,13.60
2023-01-13T12:13:46.847Z,13.60
2023-01-13T12:16:50.384Z,13.30
2023-01-13T16:29:06.691Z,13.30
2023-01-13T16:32:09.282Z,14.40
2023-01-13T16:35:11.968Z,15.10
2023-01-13T16:38:16.701Z,13.40
2023-01-13T16:41:20.314Z,14.90
2023-01-13T16:44:23.206Z,15.60
2023-01-13T16:47:25.392Z,14.80
2023-01-13T16:50:31.388Z,17.10
2023-01-13T16:53:33.621Z,18.30
2023-01-13T16:56:37.741Z,17.20
2023-01-13T16:59:40.246Z,17.40
2023-01-13T17:02:42.383Z,15.80
2023-01-13T17:05:49.550Z,18.60
2023-01-13T17:08:52.909Z,13.80
2023-01-13T17:11:55.974Z,15.60
2023-01-13T17:14:58.285Z,15.50
2023-01-13T17:18:01.235Z,15.50
2023-01-13T17:21:04.456Z,14.90
2023-01-13T17:24:07.739Z,15.10
2023-01-13T17:27:10.889Z,14.50
2023-01-13T17:30:16.376Z,15.40
2023-01-13T17:33:18.956Z,15.90
2023-01-13T17:36:24.779Z,16.80
2023-01-13T17:39:27.188Z,15.10
2023-01-13T17:42:29.894Z,15.90
2023-01-13T17:45:34.052Z,14.40
2023-01-13T17:48:37.250Z,15.70
2023-01-13T17:51:39.453Z,15.10
2023-01-13T17:54:43.492Z,14.90
2023-01-13T17:57:45.729Z,14.70
2023-01-13T18:04:49.664Z,16.00
2023-01-13T18:07:52.695Z,16.00
2023-01-13T18:10:58.831Z,17.00
2023-01-13T18:14:00.997Z,18.40
2023-01-13T18:17:04.764Z,19.30
2023-01-13T18:20:25.598Z,16.90
2023-01-13T18:23:46.109Z,18.10
2023-01-13T18:27:06.410Z,17.50
2023-01-13T18:33:09.004Z,17.40
2023-01-13T18:36:13.286Z,18.60
2023-01-13T18:39:15.277Z,16.70
2023-01-13T18:42:45.446Z,17.40
2023-01-13T18:45:50.930Z,16.70
2023-01-13T18:48:55.685Z,17.00
2023-01-13T18:51:57.962Z,17.60
2023-01-13T18:55:00.072Z,17.90
2023-01-13T18:58:02.309Z,18.70
2023-01-13T19:01:06.550Z,19.90
2023-01-13T19:04:16.016Z,20.50
2023-01-13T19:07:23.424Z,21.30
2023-01-13T19:10:27.674Z,19.40
2023-01-13T19:13:30.150Z,21.50
2023-01-13T19:16:42.268Z,21.00
2023-01-13T19:19:50.385Z,20.00
2023-01-13T19:22:54.131Z,21.50
2023-01-13T19:26:08.944Z,19.70
2023-01-13T19:29:11.221Z,19.00
2023-01-13T19:32:15.034Z,20.00
2023-01-13T19:35:19.545Z,19.50
2023-01-13T19:38:23.252Z,18.50
2023-01-13T19:41:43.994Z,17.40
2023-01-13T19:45:08.152Z,19.50
